Time;durP1;ratioP1;P1;durP2;ratioP2;P2;SDS_P1;SDS_P2;PMS_P1;PMS_P2;Temp;Humidity;BMP_temperature;BMP_pressure;BME280_temperature;BME280_humidity;BME280_pressure;Samples;Min_cycle;Max_cycle;Signal;HPM_P1;HPM_P2
2023/11/04 00:00:05;;;;;;;9.57;5.03;;;;;;;;;;5041354;28;20106;-64
2023/11/04 00:02:31;;;;;;;7.78;4.70;;;;;;;;;;5037147;28;20045;-65
2023/11/04 00:04:57;;;;;;;5.78;4.20;;;;;;;;;;5038089;28;20044;-65
2023/11/04 00:07:24;;;;;;;5.90;3.78;;;;;;;;;;5042691;28;20029;-66
2023/11/04 00:09:50;;;;;;;4.07;3.35;;;;;;;;;;5038110;28;20457;-65
2023/11/04 00:12:17;;;;;;;6.28;3.70;;;;;;;;;;5036038;28;20363;-65
2023/11/04 00:14:43;;;;;;;6.80;3.67;;;;;;;;;;5037536;28;20059;-65
2023/11/04 00:17:09;;;;;;;6.00;3.83;;;;;;;;;;5041759;28;20078;-65
2023/11/04 00:19:35;;;;;;;4.43;3.65;;;;;;;;;;5041880;28;20066;-65
2023/11/04 00:22:01;;;;;;;6.55;3.40;;;;;;;;;;5036492;28;20029;-65
2023/11/04 00:24:27;;;;;;;8.55;3.50;;;;;;;;;;5039008;28;20037;-65
2023/11/04 00:26:53;;;;;;;3.78;3.38;;;;;;;;;;5039161;28;20021;-66
2023/11/04 00:29:20;;;;;;;7.65;4.25;;;;;;;;;;5041641;28;20461;-65
2023/11/04 00:31:46;;;;;;;11.95;6.70;;;;;;;;;;5036065;28;20371;-69
2023/11/04 00:34:13;;;;;;;8.45;6.47;;;;;;;;;;5039370;28;20032;-64
2023/11/04 00:36:39;;;;;;;9.68;6.72;;;;;;;;;;5034524;28;20062;-66
2023/11/04 00:39:05;;;;;;;11.18;5.63;;;;;;;;;;5028318;28;20045;-65
2023/11/04 00:41:32;;;;;;;7.22;5.38;;;;;;;;;;5041587;28;20100;-64
2023/11/04 00:43:58;;;;;;;7.80;5.20;;;;;;;;;;5037969;28;20033;-65
2023/11/04 00:46:26;;;;;;;6.60;4.70;;;;;;;;;;5038099;28;20542;-64
2023/11/04 00:48:52;;;;;;;5.80;4.45;;;;;;;;;;5043287;28;20037;-65
2023/11/04 00:51:18;;;;;;;13.05;7.97;;;;;;;;;;5033199;28;20138;-65
2023/11/04 00:53:44;;;;;;;7.90;5.30;;;;;;;;;;5017086;28;20044;-65
2023/11/04 00:56:10;;;;;;;4.60;3.67;;;;;;;;;;5015474;28;20466;-64
2023/11/04 00:58:37;;;;;;;5.28;4.10;;;;;;;;;;5037961;28;20029;-65
2023/11/04 01:01:03;;;;;;;5.00;3.63;;;;;;;;;;5041316;28;20105;-64
2023/11/04 01:03:29;;;;;;;4.68;3.85;;;;;;;;;;5034239;28;20468;-64
2023/11/04 01:05:55;;;;;;;7.28;3.65;;;;;;;;;;5037768;28;20078;-65
2023/11/04 01:08:22;;;;;;;6.10;2.92;;;;;;;;;;5031018;28;20501;-64
2023/11/04 01:10:48;;;;;;;4.78;2.80;;;;;;;;;;5041233;28;20541;-65
2023/11/04 01:13:14;;;;;;;4.38;2.40;;;;;;;;;;5031036;28;20485;-64
2023/11/04 01:15:40;;;;;;;4.97;3.10;;;;;;;;;;5037350;28;20096;-64
2023/11/04 01:18:07;;;;;;;4.20;3.40;;;;;;;;;;5039382;28;20539;-64
2023/11/04 01:20:33;;;;;;;3.97;3.25;;;;;;;;;;5031645;28;20051;-65
2023/11/04 01:22:59;;;;;;;6.45;2.88;;;;;;;;;;5039185;28;20024;-64
2023/11/04 01:25:25;;;;;;;7.28;3.60;;;;;;;;;;5037361;28;20545;-64
2023/11/04 01:27:51;;;;;;;4.60;3.38;;;;;;;;;;5037187;28;20033;-64
2023/11/04 01:30:17;;;;;;;4.72;3.33;;;;;;;;;;5037051;28;20025;-65
2023/11/04 01:32:43;;;;;;;4.68;3.55;;;;;;;;;;5033097;28;20052;-64
2023/11/04 01:35:10;;;;;;;7.78;4.63;;;;;;;;;;5044650;28;20025;-64
2023/11/04 01:37:36;;;;;;;6.78;4.45;;;;;;;;;;5037165;28;20469;-64
2023/11/04 01:40:07;;;;;;;9.23;3.90;;;;;;;;;;5045928;28;20119;-64
2023/11/04 01:42:33;;;;;;;5.57;4.00;;;;;;;;;;5029836;28;20029;-65
2023/11/04 01:44:59;;;;;;;8.00;4.47;;;;;;;;;;5042877;28;20025;-64
2023/11/04 01:47:25;;;;;;;8.93;4.07;;;;;;;;;;5030888;28;20607;-65
2023/11/04 01:49:52;;;;;;;8.40;4.95;;;;;;;;;;5021689;28;20029;-64
2023/11/04 01:52:18;;;;;;;6.40;4.25;;;;;;;;;;5034242;28;20354;-64
2023/11/04 01:54:44;;;;;;;10.20;6.10;;;;;;;;;;5042544;28;20032;-66
2023/11/04 01:57:11;;;;;;;10.73;6.90;;;;;;;;;;5014446;28;20033;-64
2023/11/04 01:59:37;;;;;;;10.18;6.70;;;;;;;;;;5041493;28;20033;-64
2023/11/04 02:02:06;;;;;;;10.80;5.00;;;;;;;;;;5030280;28;20041;-65
2023/11/04 02:04:32;;;;;;;12.52;6.05;;;;;;;;;;5035032;28;20040;-64
2023/11/04 02:06:58;;;;;;;8.30;5.45;;;;;;;;;;5036234;28;20032;-65
2023/11/04 02:09:24;;;;;;;8.68;4.95;;;;;;;;;;5039846;28;20509;-65
2023/11/04 02:11:53;;;;;;;8.85;5.45;;;;;;;;;;5037787;28;20025;-65
2023/11/04 02:14:19;;;;;;;8.50;5.72;;;;;;;;;;5029692;28;20064;-65
2023/11/04 02:16:46;;;;;;;7.80;5.57;;;;;;;;;;5038949;28;20033;-65
2023/11/04 02:19:12;;;;;;;8.50;6.05;;;;;;;;;;5039749;28;20044;-65
2023/11/04 02:21:39;;;;;;;8.55;5.72;;;;;;;;;;5019773;28;20490;-66
2023/11/04 02:24:05;;;;;;;8.57;6.20;;;;;;;;;;5024228;28;20620;-65
2023/11/04 02:26:31;;;;;;;9.38;6.65;;;;;;;;;;5011224;28;20124;-65
2023/11/04 02:28:57;;;;;;;7.25;5.90;;;;;;;;;;5042890;28;20394;-65
2023/11/04 02:31:23;;;;;;;6.75;5.50;;;;;;;;;;5039722;28;20028;-65
2023/11/04 02:33:50;;;;;;;7.10;5.13;;;;;;;;;;5030529;28;20037;-64
2023/11/04 02:36:16;;;;;;;7.25;4.82;;;;;;;;;;5035729;28;20041;-65
2023/11/04 02:38:42;;;;;;;4.53;4.10;;;;;;;;;;5037488;28;20356;-65
2023/11/04 02:41:08;;;;;;;7.95;4.53;;;;;;;;;;5039787;28;20053;-65
2023/11/04 02:43:34;;;;;;;8.85;5.25;;;;;;;;;;5024684;28;20039;-65
2023/11/04 02:46:00;;;;;;;5.80;4.63;;;;;;;;;;5040202;28;20607;-65
2023/11/04 02:48:26;;;;;;;7.70;4.97;;;;;;;;;;5039579;28;20456;-65
2023/11/04 02:50:52;;;;;;;6.53;4.97;;;;;;;;;;5033364;28;20065;-65
2023/11/04 02:53:18;;;;;;;7.35;5.75;;;;;;;;;;5032789;28;20148;-65
2023/11/04 02:55:45;;;;;;;6.78;4.78;;;;;;;;;;5039512;28;20036;-66
2023/11/04 02:58:11;;;;;;;11.95;4.97;;;;;;;;;;5041599;28;20561;-64
2023/11/04 03:00:37;;;;;;;8.02;5.38;;;;;;;;;;5043827;28;20029;-64
2023/11/04 03:03:03;;;;;;;6.70;5.50;;;;;;;;;;5027790;28;20071;-64
2023/11/04 03:05:29;;;;;;;7.88;5.40;;;;;;;;;;5032011;28;20029;-65
2023/11/04 03:07:56;;;;;;;9.32;5.35;;;;;;;;;;5017851;28;20028;-64
2023/11/04 03:10:22;;;;;;;7.55;5.25;;;;;;;;;;5036786;28;20038;-65
2023/11/04 03:12:48;;;;;;;6.10;5.07;;;;;;;;;;5035972;28;20121;-65
2023/11/04 03:15:14;;;;;;;7.30;5.07;;;;;;;;;;5039341;28;20025;-65
2023/11/04 03:17:40;;;;;;;9.65;4.82;;;;;;;;;;5029944;28;20033;-65
2023/11/04 03:20:08;;;;;;;9.93;5.00;;;;;;;;;;5035568;28;20293;-65
2023/11/04 03:22:34;;;;;;;7.80;4.93;;;;;;;;;;5036951;28;20521;-65
2023/11/04 03:25:00;;;;;;;9.05;4.72;;;;;;;;;;5019935;28;20403;-65
2023/11/04 03:27:26;;;;;;;7.00;4.75;;;;;;;;;;5034312;28;20051;-65
2023/11/04 03:29:53;;;;;;;8.18;5.55;;;;;;;;;;5044038;28;20029;-65
2023/11/04 03:32:19;;;;;;;6.18;5.03;;;;;;;;;;5038048;28;20094;-66
2023/11/04 03:34:45;;;;;;;8.23;5.38;;;;;;;;;;5031967;28;20033;-65
2023/11/04 03:37:12;;;;;;;8.43;4.97;;;;;;;;;;5038835;28;20029;-64
2023/11/04 03:39:38;;;;;;;6.20;4.75;;;;;;;;;;5025185;28;20043;-65
2023/11/04 03:42:04;;;;;;;7.68;4.63;;;;;;;;;;5038645;28;20029;-64
2023/11/04 03:44:30;;;;;;;10.45;5.53;;;;;;;;;;5032308;28;20049;-64
2023/11/04 03:46:56;;;;;;;6.03;4.47;;;;;;;;;;5042286;28;20651;-65
2023/11/04 03:49:22;;;;;;;6.10;4.25;;;;;;;;;;5024449;28;20460;-65
2023/11/04 03:51:48;;;;;;;7.53;5.32;;;;;;;;;;5031008;28;20072;-65
2023/11/04 03:54:14;;;;;;;7.45;4.82;;;;;;;;;;5045247;28;20055;-65
2023/11/04 03:56:40;;;;;;;6.10;4.63;;;;;;;;;;5040789;28;20107;-64
2023/11/04 03:59:07;;;;;;;7.60;4.78;;;;;;;;;;5034394;28;20327;-64
2023/11/04 04:01:40;;;;;;;6.18;4.55;;;;;;;;;;5038729;28;20056;-64
2023/11/04 04:04:06;;;;;;;6.43;4.75;;;;;;;;;;5023605;28;20035;-64
2023/11/04 04:06:33;;;;;;;8.85;4.25;;;;;;;;;;5042144;28;20062;-64
2023/11/04 04:08:59;;;;;;;11.43;4.05;;;;;;;;;;5042810;28;20390;-64
2023/11/04 04:11:25;;;;;;;6.35;4.85;;;;;;;;;;5041332;28;20057;-64
2023/11/04 04:13:51;;;;;;;8.27;4.07;;;;;;;;;;5043379;28;20052;-64
2023/11/04 04:16:18;;;;;;;5.45;3.92;;;;;;;;;;5034224;28;20033;-65
2023/11/04 04:18:44;;;;;;;7.93;4.63;;;;;;;;;;5035490;28;20897;-64
2023/11/04 04:21:14;;;;;;;5.97;4.43;;;;;;;;;;5037518;28;20025;-64
2023/11/04 04:23:40;;;;;;;7.45;4.78;;;;;;;;;;5042641;28;20063;-65
2023/11/04 04:26:07;;;;;;;6.75;4.40;;;;;;;;;;5042318;28;20043;-65
2023/11/04 04:28:33;;;;;;;6.30;4.40;;;;;;;;;;5038682;28;20052;-65
2023/11/04 04:31:00;;;;;;;9.98;4.82;;;;;;;;;;5037823;28;20025;-65
2023/11/04 04:33:26;;;;;;;4.43;3.50;;;;;;;;;;5019620;28;20037;-65
2023/11/04 04:35:52;;;;;;;4.30;3.13;;;;;;;;;;5048156;28;20033;-68
2023/11/04 04:38:18;;;;;;;7.28;3.55;;;;;;;;;;5038960;28;20488;-68
2023/11/04 04:40:44;;;;;;;4.60;3.33;;;;;;;;;;5035642;28;20029;-69
2023/11/04 04:43:10;;;;;;;4.50;3.00;;;;;;;;;;5043820;28;20040;-66
2023/11/04 04:45:36;;;;;;;7.05;3.55;;;;;;;;;;5037389;28;20033;-66
2023/11/04 04:48:02;;;;;;;4.18;3.22;;;;;;;;;;5041010;28;20883;-66
2023/11/04 04:50:28;;;;;;;4.22;3.30;;;;;;;;;;5038106;28;20453;-65
2023/11/04 04:52:55;;;;;;;10.07;3.75;;;;;;;;;;5032608;28;20126;-66
2023/11/04 04:55:22;;;;;;;4.15;2.88;;;;;;;;;;5032944;28;20149;-65
2023/11/04 04:57:48;;;;;;;3.97;2.60;;;;;;;;;;5016649;28;20033;-66
2023/11/04 05:00:15;;;;;;;6.68;3.30;;;;;;;;;;5038254;28;20029;-66
2023/11/04 05:02:42;;;;;;;4.65;2.95;;;;;;;;;;5018556;28;20050;-69
2023/11/04 05:05:10;;;;;;;3.63;3.22;;;;;;;;;;5014743;28;20037;-65
2023/11/04 05:07:36;;;;;;;3.80;2.80;;;;;;;;;;5024899;28;20380;-66
2023/11/04 05:10:02;;;;;;;3.13;2.70;;;;;;;;;;5023522;28;20528;-67
2023/11/04 05:12:28;;;;;;;3.20;2.90;;;;;;;;;;5021922;28;20909;-65
2023/11/04 05:14:54;;;;;;;5.18;3.33;;;;;;;;;;5023473;28;20040;-65
2023/11/04 05:17:20;;;;;;;5.68;3.00;;;;;;;;;;5025346;28;20953;-65
2023/11/04 05:19:47;;;;;;;5.00;2.70;;;;;;;;;;5022647;28;20076;-67
2023/11/04 05:22:13;;;;;;;4.80;2.97;;;;;;;;;;5021204;28;20029;-66
2023/11/04 05:24:40;;;;;;;4.38;2.90;;;;;;;;;;5035299;28;20566;-66
2023/11/04 05:27:06;;;;;;;4.13;3.03;;;;;;;;;;5021325;28;20041;-66
2023/11/04 05:29:32;;;;;;;4.18;3.30;;;;;;;;;;5015382;28;20468;-66
2023/11/04 05:31:58;;;;;;;6.70;2.67;;;;;;;;;;5020108;28;20025;-66
2023/11/04 05:34:24;;;;;;;4.82;2.72;;;;;;;;;;5033144;28;20035;-65
2023/11/04 05:36:52;;;;;;;5.55;2.83;;;;;;;;;;5023642;28;20032;-65
2023/11/04 05:39:18;;;;;;;5.57;3.85;;;;;;;;;;5022134;28;20075;-66
2023/11/04 05:41:44;;;;;;;5.95;2.97;;;;;;;;;;5013010;28;20550;-65
2023/11/04 05:44:10;;;;;;;4.55;3.47;;;;;;;;;;5019182;28;20056;-65
2023/11/04 05:46:37;;;;;;;5.95;3.80;;;;;;;;;;5016664;28;20037;-68
2023/11/04 05:49:03;;;;;;;6.75;3.72;;;;;;;;;;5010886;28;20669;-66
2023/11/04 05:51:29;;;;;;;5.03;3.47;;;;;;;;;;5012197;28;20104;-66
2023/11/04 05:53:55;;;;;;;4.90;3.25;;;;;;;;;;5024375;28;20041;-66
2023/11/04 05:56:21;;;;;;;3.92;3.10;;;;;;;;;;5015792;28;20087;-67
2023/11/04 05:58:47;;;;;;;4.28;3.17;;;;;;;;;;5017264;28;20389;-66
2023/11/04 06:01:14;;;;;;;4.18;3.58;;;;;;;;;;5020156;28;20025;-66
2023/11/04 06:03:40;;;;;;;6.13;3.50;;;;;;;;;;5027696;28;20673;-66
2023/11/04 06:06:06;;;;;;;5.32;3.30;;;;;;;;;;5038452;28;20099;-66
2023/11/04 06:08:35;;;;;;;3.95;3.08;;;;;;;;;;5036323;28;20036;-66
2023/11/04 06:11:02;;;;;;;11.75;2.95;;;;;;;;;;5036427;28;20037;-67
2023/11/04 06:13:29;;;;;;;4.50;2.78;;;;;;;;;;5035161;28;20036;-66
2023/11/04 06:15:55;;;;;;;4.40;2.72;;;;;;;;;;5031934;28;20621;-66
2023/11/04 06:18:21;;;;;;;4.80;3.03;;;;;;;;;;5037693;28;20037;-65
2023/11/04 06:20:47;;;;;;;5.15;2.60;;;;;;;;;;5034520;28;20492;-66
2023/11/04 06:23:14;;;;;;;3.08;2.67;;;;;;;;;;5034737;28;20033;-66
2023/11/04 06:25:40;;;;;;;4.53;3.08;;;;;;;;;;5028476;28;20352;-68
2023/11/04 06:28:09;;;;;;;5.00;2.60;;;;;;;;;;5034829;28;21540;-67
2023/11/04 06:30:38;;;;;;;3.03;2.72;;;;;;;;;;5039633;28;20031;-66
2023/11/04 06:33:04;;;;;;;6.60;2.97;;;;;;;;;;5021221;28;20036;-65
2023/11/04 06:35:33;;;;;;;3.08;2.40;;;;;;;;;;5017345;28;20024;-65
2023/11/04 06:38:01;;;;;;;3.30;2.15;;;;;;;;;;5035006;28;20120;-66
2023/11/04 06:40:27;;;;;;;3.45;2.28;;;;;;;;;;5036964;28;20139;-66
2023/11/04 06:42:53;;;;;;;2.35;2.15;;;;;;;;;;5037267;28;20109;-70
2023/11/04 06:45:19;;;;;;;3.42;2.28;;;;;;;;;;5035101;28;20390;-66
2023/11/04 06:47:47;;;;;;;3.63;2.45;;;;;;;;;;5022260;28;20043;-69
2023/11/04 06:50:13;;;;;;;2.47;1.90;;;;;;;;;;5036811;28;20110;-66
2023/11/04 06:52:39;;;;;;;4.18;2.00;;;;;;;;;;5034440;28;20035;-67
2023/11/04 06:55:07;;;;;;;5.30;1.90;;;;;;;;;;5036082;28;20037;-66
2023/11/04 06:57:36;;;;;;;1.73;1.63;;;;;;;;;;5022356;28;20452;-66
2023/11/04 07:00:04;;;;;;;3.05;2.15;;;;;;;;;;5036540;28;20029;-66
2023/11/04 07:02:31;;;;;;;3.72;2.00;;;;;;;;;;5037227;28;20134;-65
2023/11/04 07:04:59;;;;;;;5.47;2.33;;;;;;;;;;5015624;28;20029;-64
2023/11/04 07:07:25;;;;;;;2.70;1.90;;;;;;;;;;5035893;28;20120;-64
2023/11/04 07:09:51;;;;;;;1.80;1.70;;;;;;;;;;5051338;28;20036;-64
2023/11/04 07:12:18;;;;;;;2.63;2.08;;;;;;;;;;5034770;28;20260;-63
2023/11/04 07:14:45;;;;;;;3.35;1.90;;;;;;;;;;5039265;28;20486;-64
2023/11/04 07:17:11;;;;;;;1.67;1.58;;;;;;;;;;5036309;28;20482;-65
2023/11/04 07:19:38;;;;;;;2.13;1.92;;;;;;;;;;5037785;28;20116;-65
2023/11/04 07:22:05;;;;;;;1.80;1.50;;;;;;;;;;5041767;28;20040;-64
2023/11/04 07:24:34;;;;;;;1.58;1.48;;;;;;;;;;5013626;28;20124;-65
2023/11/04 07:27:01;;;;;;;2.67;1.90;;;;;;;;;;5028770;28;20036;-66
2023/11/04 07:29:27;;;;;;;1.60;1.50;;;;;;;;;;5043152;28;20033;-66
2023/11/04 07:31:53;;;;;;;1.70;1.60;;;;;;;;;;5044131;28;20884;-66
2023/11/04 07:34:19;;;;;;;1.80;1.70;;;;;;;;;;5040535;28;20041;-66
2023/11/04 07:36:45;;;;;;;1.48;1.38;;;;;;;;;;5040484;28;20326;-65
2023/11/04 07:39:11;;;;;;;2.67;1.75;;;;;;;;;;5036493;28;21019;-66
2023/11/04 07:41:41;;;;;;;2.75;1.90;;;;;;;;;;5042973;28;20021;-66
2023/11/04 07:44:07;;;;;;;2.97;2.00;;;;;;;;;;5044474;28;20033;-66
2023/11/04 07:46:33;;;;;;;1.90;1.75;;;;;;;;;;5046626;28;20020;-66
2023/11/04 07:48:59;;;;;;;1.90;1.80;;;;;;;;;;5035863;28;20048;-66
2023/11/04 07:51:25;;;;;;;1.83;1.73;;;;;;;;;;5023830;28;20037;-66
2023/11/04 07:53:52;;;;;;;2.33;1.90;;;;;;;;;;5038064;28;20033;-66
2023/11/04 07:56:20;;;;;;;2.42;1.90;;;;;;;;;;5026994;28;20490;-66
2023/11/04 07:58:46;;;;;;;2.35;1.80;;;;;;;;;;5026388;28;20033;-66
2023/11/04 08:01:17;;;;;;;2.00;1.80;;;;;;;;;;5039992;28;20513;-66
2023/11/04 08:03:43;;;;;;;8.52;2.40;;;;;;;;;;5025872;28;20051;-66
2023/11/04 08:06:09;;;;;;;2.00;1.80;;;;;;;;;;5033304;28;20111;-66
2023/11/04 08:08:35;;;;;;;6.82;1.92;;;;;;;;;;5038661;28;20414;-66
2023/11/04 08:11:01;;;;;;;2.40;1.77;;;;;;;;;;5040476;28;20030;-67
2023/11/04 08:13:27;;;;;;;2.22;2.03;;;;;;;;;;5039962;28;20034;-66
2023/11/04 08:15:53;;;;;;;3.67;2.20;;;;;;;;;;5035719;28;20484;-66
2023/11/04 08:18:22;;;;;;;2.33;1.67;;;;;;;;;;5039543;28;20098;-66
2023/11/04 08:20:49;;;;;;;2.50;1.92;;;;;;;;;;5044017;28;20478;-66
2023/11/04 08:23:15;;;;;;;2.33;1.90;;;;;;;;;;5014370;28;20033;-67
2023/11/04 08:25:41;;;;;;;1.90;1.63;;;;;;;;;;5043097;28;20056;-65
2023/11/04 08:28:07;;;;;;;1.60;1.50;;;;;;;;;;5041687;28;20445;-66
2023/11/04 08:30:34;;;;;;;2.72;1.45;;;;;;;;;;5039051;28;20032;-66
2023/11/04 08:33:00;;;;;;;1.67;1.58;;;;;;;;;;5043618;28;20064;-66
2023/11/04 08:35:27;;;;;;;1.60;1.50;;;;;;;;;;5038305;28;20663;-68
2023/11/04 08:37:53;;;;;;;2.38;1.70;;;;;;;;;;5041453;28;20501;-68
2023/11/04 08:40:19;;;;;;;2.15;1.75;;;;;;;;;;5044119;28;20040;-68
2023/11/04 08:42:45;;;;;;;3.75;1.60;;;;;;;;;;5023433;28;20087;-66
2023/11/04 08:45:13;;;;;;;2.17;1.52;;;;;;;;;;5026996;28;20064;-66
2023/11/04 08:47:40;;;;;;;3.17;2.00;;;;;;;;;;5015041;28;20025;-65
2023/11/04 08:50:07;;;;;;;2.28;1.60;;;;;;;;;;5034868;28;20025;-64
2023/11/04 08:52:33;;;;;;;3.65;1.90;;;;;;;;;;5036212;28;20038;-65
2023/11/04 08:55:01;;;;;;;1.80;1.60;;;;;;;;;;5022779;28;20074;-66
2023/11/04 08:57:27;;;;;;;2.28;1.70;;;;;;;;;;5022667;28;20036;-65
2023/11/04 08:59:54;;;;;;;2.42;1.70;;;;;;;;;;5036067;28;20078;-66
2023/11/04 09:02:20;;;;;;;3.53;2.05;;;;;;;;;;5038523;28;20406;-66
2023/11/04 09:04:46;;;;;;;2.15;1.67;;;;;;;;;;5034929;28;20036;-66
2023/11/04 09:07:13;;;;;;;2.97;1.75;;;;;;;;;;5037028;28;20036;-66
2023/11/04 09:09:39;;;;;;;3.42;1.80;;;;;;;;;;5039667;28;20025;-66
2023/11/04 09:12:05;;;;;;;3.70;2.30;;;;;;;;;;5037568;28;20040;-65
2023/11/04 09:14:32;;;;;;;3.15;1.85;;;;;;;;;;5038792;28;20102;-66
2023/11/04 09:16:58;;;;;;;3.50;1.70;;;;;;;;;;5037909;28;20500;-65
2023/11/04 09:19:24;;;;;;;5.03;1.67;;;;;;;;;;5040512;28;20029;-66
2023/11/04 09:21:51;;;;;;;4.30;2.10;;;;;;;;;;5036216;28;20479;-65
2023/11/04 09:24:18;;;;;;;5.47;1.83;;;;;;;;;;5036087;28;20026;-66
2023/11/04 09:26:46;;;;;;;3.40;1.83;;;;;;;;;;5037268;28;20834;-66
2023/11/04 09:29:12;;;;;;;3.65;2.08;;;;;;;;;;5041564;28;20044;-66
2023/11/04 09:31:38;;;;;;;3.67;2.40;;;;;;;;;;5042138;28;20402;-67
2023/11/04 09:34:07;;;;;;;4.95;2.40;;;;;;;;;;5041079;28;20037;-67
2023/11/04 09:36:34;;;;;;;4.35;2.03;;;;;;;;;;5041038;28;20149;-67
2023/11/04 09:39:00;;;;;;;6.43;2.45;;;;;;;;;;5027095;28;20040;-67
2023/11/04 09:41:26;;;;;;;7.78;2.60;;;;;;;;;;5035551;28;20033;-68
2023/11/04 09:43:52;;;;;;;5.10;2.08;;;;;;;;;;5039260;28;20112;-67
2023/11/04 09:46:19;;;;;;;3.78;2.00;;;;;;;;;;5019317;28;20029;-66
2023/11/04 09:48:45;;;;;;;3.15;1.90;;;;;;;;;;5035698;28;20553;-67
2023/11/04 09:51:15;;;;;;;5.05;2.25;;;;;;;;;;5034025;28;20108;-67
2023/11/04 09:53:56;;;;;;;3.03;1.98;;;;;;;;;;5039097;28;20067;-66
2023/11/04 09:56:22;;;;;;;5.63;1.90;;;;;;;;;;5029771;28;20597;-67
2023/11/04 09:58:50;;;;;;;3.90;1.48;;;;;;;;;;5032954;28;20036;-66
2023/11/04 10:01:18;;;;;;;3.03;1.70;;;;;;;;;;5032098;28;20025;-66
2023/11/04 10:03:45;;;;;;;2.22;1.73;;;;;;;;;;5034539;28;20048;-67
2023/11/04 10:06:11;;;;;;;2.67;1.52;;;;;;;;;;5037063;28;20087;-66
2023/11/04 10:08:37;;;;;;;4.78;1.80;;;;;;;;;;5040435;28;20029;-65
2023/11/04 10:11:05;;;;;;;4.38;2.25;;;;;;;;;;5038892;28;20025;-66
2023/11/04 10:13:31;;;;;;;1.80;1.40;;;;;;;;;;5024858;28;20041;-66
2023/11/04 10:15:57;;;;;;;3.58;1.95;;;;;;;;;;5037275;28;20044;-66
2023/11/04 10:18:24;;;;;;;5.18;1.80;;;;;;;;;;5037416;28;20029;-66
2023/11/04 10:20:53;;;;;;;6.10;1.65;;;;;;;;;;5037262;28;20073;-67
2023/11/04 10:23:20;;;;;;;2.63;1.65;;;;;;;;;;5033010;28;20406;-67
2023/11/04 10:25:47;;;;;;;3.28;1.63;;;;;;;;;;5022846;28;20395;-66
2023/11/04 10:28:13;;;;;;;1.90;1.80;;;;;;;;;;5035190;28;20025;-68
2023/11/04 10:30:40;;;;;;;7.68;2.30;;;;;;;;;;5036508;28;20718;-71
2023/11/04 10:33:07;;;;;;;1.70;1.60;;;;;;;;;;5036105;28;20036;-66
2023/11/04 10:35:35;;;;;;;4.75;1.90;;;;;;;;;;5037310;28;20478;-66
2023/11/04 10:38:07;;;;;;;2.88;1.80;;;;;;;;;;5016953;28;20059;-67
2023/11/04 10:40:34;;;;;;;5.03;1.83;;;;;;;;;;5035836;28;20086;-67
2023/11/04 10:43:07;;;;;;;3.78;1.75;;;;;;;;;;5015374;28;20390;-66
2023/11/04 10:45:37;;;;;;;3.40;1.88;;;;;;;;;;5038649;28;20025;-67
2023/11/04 10:48:03;;;;;;;4.95;1.90;;;;;;;;;;5039454;28;20486;-68
2023/11/04 10:50:33;;;;;;;5.20;2.47;;;;;;;;;;5011420;28;20037;-67
2023/11/04 10:53:11;;;;;;;3.38;2.28;;;;;;;;;;5032857;28;20174;-67
2023/11/04 10:55:43;;;;;;;4.75;2.03;;;;;;;;;;5036241;28;20029;-68
2023/11/04 10:58:13;;;;;;;2.35;2.03;;;;;;;;;;5037758;28;20781;-67
2023/11/04 11:00:40;;;;;;;2.97;2.10;;;;;;;;;;5012796;28;20152;-67
2023/11/04 11:03:09;;;;;;;5.35;2.10;;;;;;;;;;5032966;28;20045;-66
2023/11/04 11:05:35;;;;;;;3.75;2.28;;;;;;;;;;5027750;28;20072;-66
2023/11/04 11:08:03;;;;;;;4.05;2.15;;;;;;;;;;5038899;28;20025;-66
2023/11/04 11:10:42;;;;;;;7.53;2.65;;;;;;;;;;5038113;28;20160;-67
2023/11/04 11:13:11;;;;;;;2.47;2.10;;;;;;;;;;5029104;28;20040;-66
2023/11/04 11:15:38;;;;;;;7.28;2.13;;;;;;;;;;5036405;28;20025;-65
2023/11/04 11:18:05;;;;;;;3.53;2.33;;;;;;;;;;5039040;28;20385;-66
2023/11/04 11:20:33;;;;;;;3.55;1.95;;;;;;;;;;5033630;28;20257;-66
2023/11/04 11:23:03;;;;;;;2.40;2.20;;;;;;;;;;5036270;28;20026;-67
2023/11/04 11:25:32;;;;;;;8.02;2.20;;;;;;;;;;5033623;28;20560;-66
2023/11/04 11:28:04;;;;;;;6.13;2.30;;;;;;;;;;5041543;28;20031;-67
2023/11/04 11:30:37;;;;;;;8.23;2.65;;;;;;;;;;5034489;28;20112;-67
2023/11/04 11:33:11;;;;;;;6.93;3.72;;;;;;;;;;5022934;28;20051;-67
2023/11/04 11:35:55;;;;;;;7.18;3.47;;;;;;;;;;5037299;28;20045;-67
2023/11/04 11:38:21;;;;;;;3.60;3.05;;;;;;;;;;5035597;28;20031;-67
2023/11/04 11:40:47;;;;;;;6.75;3.22;;;;;;;;;;5026590;28;20535;-66
2023/11/04 11:43:14;;;;;;;9.93;4.75;;;;;;;;;;5035513;28;20524;-66
2023/11/04 11:45:40;;;;;;;9.60;3.92;;;;;;;;;;5036350;28;20020;-66
2023/11/04 11:48:06;;;;;;;5.50;3.70;;;;;;;;;;5033019;28;20026;-67
2023/11/04 11:50:39;;;;;;;10.43;3.40;;;;;;;;;;5024802;28;20029;-67
2023/11/04 11:53:05;;;;;;;3.85;2.58;;;;;;;;;;5036674;28;20017;-66
2023/11/04 11:55:31;;;;;;;5.63;3.05;;;;;;;;;;5022020;28;20021;-66
2023/11/04 11:57:58;;;;;;;3.97;2.55;;;;;;;;;;5039949;28;20037;-66
2023/11/04 12:00:24;;;;;;;6.30;3.30;;;;;;;;;;5030422;28;20117;-68
2023/11/04 12:02:51;;;;;;;6.43;2.95;;;;;;;;;;5040750;28;20123;-71
2023/11/04 12:05:18;;;;;;;2.67;2.30;;;;;;;;;;5037407;28;20043;-66
2023/11/04 12:07:45;;;;;;;5.97;2.78;;;;;;;;;;5009306;28;20120;-69
2023/11/04 12:10:12;;;;;;;6.28;3.75;;;;;;;;;;5025297;28;20032;-68
2023/11/04 12:12:40;;;;;;;8.38;3.45;;;;;;;;;;5032621;28;20445;-69
2023/11/04 12:15:10;;;;;;;4.75;2.47;;;;;;;;;;5032316;28;20033;-68
2023/11/04 12:17:37;;;;;;;10.32;3.58;;;;;;;;;;5029227;28;20405;-68
2023/11/04 12:20:04;;;;;;;5.60;2.92;;;;;;;;;;5036123;28;20433;-68
2023/11/04 12:22:30;;;;;;;6.60;3.63;;;;;;;;;;5018092;28;20032;-69
2023/11/04 12:24:56;;;;;;;6.30;2.35;;;;;;;;;;5017980;28;20029;-69
2023/11/04 12:27:22;;;;;;;4.85;2.65;;;;;;;;;;5038393;28;20021;-68
2023/11/04 12:29:58;;;;;;;3.80;2.20;;;;;;;;;;5040650;28;20341;-69
2023/11/04 12:32:25;;;;;;;5.38;2.55;;;;;;;;;;5039348;28;20075;-69
2023/11/04 12:34:58;;;;;;;6.97;2.50;;;;;;;;;;5036513;28;20071;-72
2023/11/04 12:37:27;;;;;;;5.13;3.25;;;;;;;;;;5039124;28;20029;-69
2023/11/04 12:39:55;;;;;;;3.95;2.50;;;;;;;;;;5021381;28;20033;-70
2023/11/04 12:42:22;;;;;;;2.40;2.00;;;;;;;;;;5036035;28;20071;-69
2023/11/04 12:44:52;;;;;;;10.07;2.90;;;;;;;;;;5037409;28;20225;-69
2023/11/04 12:47:28;;;;;;;4.53;2.33;;;;;;;;;;5039000;28;22714;-69
2023/11/04 12:49:55;;;;;;;3.65;2.08;;;;;;;;;;5041344;28;20035;-69
2023/11/04 12:52:21;;;;;;;4.47;2.75;;;;;;;;;;5041620;28;20036;-69
2023/11/04 12:54:50;;;;;;;2.83;2.03;;;;;;;;;;5042839;28;20558;-69
2023/11/04 12:57:16;;;;;;;4.15;2.40;;;;;;;;;;5045704;28;20224;-69
2023/11/04 12:59:42;;;;;;;5.05;2.30;;;;;;;;;;5044001;28;20025;-70
2023/11/04 13:02:08;;;;;;;5.15;2.50;;;;;;;;;;5038967;28;20096;-67
2023/11/04 13:04:34;;;;;;;5.55;3.00;;;;;;;;;;5044599;28;20032;-68
2023/11/04 13:07:04;;;;;;;3.95;1.83;;;;;;;;;;5037860;28;20622;-68
2023/11/04 13:09:31;;;;;;;1.92;1.73;;;;;;;;;;5039876;28;20044;-61
2023/11/04 13:12:00;;;;;;;3.20;2.20;;;;;;;;;;5036718;28;20521;-60
2023/11/04 13:14:27;;;;;;;3.25;1.95;;;;;;;;;;5019189;28;20043;-60
2023/11/04 13:16:54;;;;;;;4.78;2.33;;;;;;;;;;5019128;28;20060;-60
2023/11/04 13:19:21;;;;;;;3.90;1.95;;;;;;;;;;5042743;28;20025;-70
2023/11/04 13:21:47;;;;;;;3.30;2.03;;;;;;;;;;5039337;28;20025;-68
2023/11/04 13:24:14;;;;;;;5.65;2.13;;;;;;;;;;5046849;28;20024;-71
2023/11/04 13:26:40;;;;;;;4.70;2.22;;;;;;;;;;5034871;28;20029;-70
2023/11/04 13:29:06;;;;;;;2.35;1.65;;;;;;;;;;5031162;28;20331;-69
2023/11/04 13:31:33;;;;;;;2.72;1.95;;;;;;;;;;5036580;28;20029;-68
2023/11/04 13:33:59;;;;;;;4.05;2.17;;;;;;;;;;5015168;28;20029;-69
2023/11/04 13:36:25;;;;;;;5.18;2.00;;;;;;;;;;5042314;28;20147;-69
2023/11/04 13:38:52;;;;;;;1.90;1.67;;;;;;;;;;5040299;28;20041;-66
2023/11/04 13:41:18;;;;;;;3.58;2.10;;;;;;;;;;5024749;28;20048;-67
2023/11/04 13:43:45;;;;;;;4.88;3.45;;;;;;;;;;5043117;28;20025;-70
2023/11/04 13:46:11;;;;;;;4.05;2.80;;;;;;;;;;5041314;28;20498;-70
2023/11/04 13:48:38;;;;;;;4.82;3.70;;;;;;;;;;5038456;28;20592;-69
2023/11/04 13:51:06;;;;;;;4.53;2.97;;;;;;;;;;5037975;28;20123;-69
2023/11/04 13:53:33;;;;;;;9.13;3.08;;;;;;;;;;5042217;28;20025;-72
2023/11/04 13:55:59;;;;;;;5.93;3.08;;;;;;;;;;5040253;28;20035;-68
2023/11/04 13:58:25;;;;;;;6.97;3.50;;;;;;;;;;5038777;28;20037;-70
2023/11/04 14:00:53;;;;;;;5.38;2.97;;;;;;;;;;5041251;28;20769;-69
2023/11/04 14:03:19;;;;;;;4.93;3.33;;;;;;;;;;5040461;28;20045;-71
2023/11/04 14:05:45;;;;;;;7.75;3.95;;;;;;;;;;5032927;28;20075;-70
2023/11/04 14:08:12;;;;;;;5.85;2.78;;;;;;;;;;5042111;28;20498;-71
2023/11/04 14:10:39;;;;;;;9.07;3.88;;;;;;;;;;5042218;28;20537;-69
2023/11/04 14:13:05;;;;;;;8.68;2.97;;;;;;;;;;5041544;28;20406;-72
2023/11/04 14:15:31;;;;;;;3.20;2.40;;;;;;;;;;5042398;28;20079;-71
2023/11/04 14:17:57;;;;;;;6.60;3.10;;;;;;;;;;5046569;28;20096;-68
2023/11/04 14:20:24;;;;;;;3.70;2.72;;;;;;;;;;5037424;28;20418;-70
2023/11/04 14:22:50;;;;;;;4.32;2.67;;;;;;;;;;5044321;28;20064;-68
2023/11/04 14:25:18;;;;;;;3.85;2.75;;;;;;;;;;5038728;28;20032;-69
2023/11/04 14:27:44;;;;;;;4.10;2.40;;;;;;;;;;5048474;28;20036;-69
2023/11/04 14:30:12;;;;;;;5.20;2.50;;;;;;;;;;5024447;28;21019;-68
2023/11/04 14:32:39;;;;;;;3.80;2.33;;;;;;;;;;5021598;28;20021;-69
2023/11/04 14:35:05;;;;;;;6.13;2.53;;;;;;;;;;5041696;28;20025;-70
2023/11/04 14:37:31;;;;;;;6.03;2.50;;;;;;;;;;5036256;28;20024;-69
2023/11/04 14:39:59;;;;;;;4.78;2.85;;;;;;;;;;5045726;28;20025;-69